Terminal Aerodrome Forecast
Issued by NWS

Home | Current Version | Previous Version | Text Only | Print | Product List | Glossary On
Versions: 1 2 3 4 5 6 7 8 9 10 11 12 13
000
FTUS42 TJSJ 230200 AAA
TAFJSJ
TAF AMD
TJSJ 230220Z 2302/2324 VRB04KT P6SM VCSH SCT025
      TEMPO 2302/2303 SHRA BKN025
     FM231400 08013KT P6SM SCT025
     FM232200 08006KT P6SM SCT025=

USA.gov is the U.S. government's official web portal to all federal, state and local government web resources and services.